Brockwell, Arkansas
Current Conditions -  °F | °C
As of 7:55 PM on Wednesday 22 Oct 2014 (Local Time) from KBVX Reporting Station
Clear Clear  
Wind Chill: 55°   Ceiling: Unl
Heat Index: 55°   Visibility: 10mi
Dew Point: 43°   Wind: 6mph
Humidity: 63%   Direction: 70°ENE
Pressure: 30.18"   Gusts: NA
Location:  36.14°N, 91.93°W
Report Text: KBVX 230055Z AUTO 07005KT 10SM CLR 13/06 A3018 RMK AO1
Loading
Personal Weather Stations






























Interactive Weather Map
Tropical Storm Tracking
New forecast layout! Learn more

10-Day Weather Forecast

Advertisements
Track Severe Weather on mobile